Taurus — 2CPB4 — position and weather

sailwx.info

Track history (hours):
 
Tides and Currents Weather Stations Pressure Air Temp Water Temp Dewpoint Dewpoint Depression Visibility Wind Speed Wind Dir Waves Ship Positions

Taurus

Last reported at 2015-Apr-25 07:28 UTC. Time now 2015-May-03 11:50 UTC.
Position N 21°58' E 114°22'.
Warning: this ship's position is 8 days out of date.

Length 292 m; draft 11 m.

Type: Cargo ship. MMSI: 235074621.

Date/timePositionNaut miles runAvg speedWind from/ knotsBaromVisibWave heightAir tempDewpointWater temp
2015-Apr-25 07:28N 21°58' E 114°22'910.3
2015-Apr-25 06:33N 22°07' E 114°19'9 1.2
2015-Apr-24 23:10N 22°10' E 114°10'3 3.3
2015-Apr-24 22:15N 22°08' E 114°13'6 8.1
2015-Apr-24 21:33N 22°08' E 114°19'1110.6
2015-Apr-24 20:30N 22°10' E 114°31'11912.0
2015-Apr-24 10:33N 22°15' E 116°39'1111.5
2015-Apr-24 09:34N 22°15' E 116°52'1711.7
2015-Apr-24 08:09N 22°15' E 117°09'712.0
2015-Apr-24 07:32N 22°16' E 117°17'1211.9
2015-Apr-24 06:33N 22°16' E 117°30'12111.9
2015-Apr-23 20:22N 22°28' E 119°41'1011.4
2015-Apr-23 19:32N 22°36' E 119°45'1111.4
2015-Apr-23 18:33N 22°46' E 119°50'31811.2
2015-Apr-22 14:15N 27°26' E 122°38'2011.8
2015-Apr-22 12:33N 27°41' E 122°53'10510.3
2015-Apr-22 02:20N 29°19' E 123°36'1314.6
2015-Apr-22 01:26N 29°32' E 123°36'1112.0
2015-Apr-22 00:32N 29°43' E 123°33'1010.0
2015-Apr-21 23:32N 29°53' E 123°31'1010.5
2015-Apr-21 22:32N 30°03' E 123°31'1511.0
2015-Apr-21 21:11N 30°18' E 123°27'711.0
2015-Apr-21 20:31N 30°25' E 123°26'1010.5
2015-Apr-21 19:32N 30°35' E 123°24'10 9.9
2015-Apr-21 18:33N 30°45' E 123°22'10 9.3
2015-Apr-21 17:30N 30°51' E 123°13'8 8.8
2015-Apr-21 16:33N 30°55' E 123°04'9 8.5
2015-Apr-21 15:33N 30°57' E 122°55'8 7.7
2015-Apr-21 14:33N 31°02' E 122°48'8 7.7
2015-Apr-21 13:33N 31°05' E 122°40'10 9.6
2015-Apr-21 12:33N 31°05' E 122°28'10 9.7
2015-Apr-21 11:33N 31°07' E 122°17'1514.7
2015-Apr-21 10:34N 31°14' E 122°03'1514.7
2015-Apr-21 09:34N 31°18' E 121°46'1212.0
2015-Apr-21 08:33N 31°24' E 121°33'9 9.0
2015-Apr-21 07:33N 31°29' E 121°25'2 1.5
2015-Apr-21 06:31N 31°30' E 121°23'0 0.0
2015-Apr-21 05:31N 31°30' E 121°23'0 0.0
2015-Apr-21 04:28N 31°30' E 121°23'0 0.0
2015-Apr-21 03:31N 31°30' E 121°23'0 0.0
2015-Apr-21 02:31N 31°30' E 121°23'0 0.0
2015-Apr-21 01:31N 31°30' E 121°23'0 0.0
2015-Apr-21 00:28N 31°30' E 121°23'0 0.0
2015-Apr-20 23:31N 31°30' E 121°23'0 0.0
2015-Apr-20 22:31N 31°30' E 121°23'0 0.0
2015-Apr-20 21:31N 31°30' E 121°23'0 0.0
2015-Apr-20 20:31N 31°30' E 121°23'0 0.0
2015-Apr-20 19:31N 31°30' E 121°23'0 0.0
2015-Apr-20 18:31N 31°30' E 121°23'0 0.0
2015-Apr-20 17:31N 31°30' E 121°23'0 0.0
2015-Apr-20 16:31N 31°30' E 121°23'0 0.0
2015-Apr-20 15:28N 31°30' E 121°23'0 0.0
2015-Apr-20 14:31N 31°30' E 121°23'0 0.0
2015-Apr-20 13:31N 31°30' E 121°23'0 0.0
2015-Apr-20 12:31N 31°30' E 121°23'0 0.0
2015-Apr-20 11:31N 31°30' E 121°23'0 0.0
2015-Apr-20 10:31N 31°30' E 121°23'0 0.0
2015-Apr-20 09:31N 31°30' E 121°23'0 0.0
2015-Apr-20 08:31N 31°30' E 121°23'0 0.0
2015-Apr-20 07:31N 31°30' E 121°23'0 0.0
2015-Apr-20 06:31N 31°30' E 121°23'0 0.0
2015-Apr-20 05:31N 31°30' E 121°23'0 0.0
2015-Apr-20 04:31N 31°30' E 121°23'0 0.0
2015-Apr-20 03:31N 31°30' E 121°23'0 0.0
2015-Apr-20 02:31N 31°30' E 121°23'0 0.0
2015-Apr-20 01:28N 31°30' E 121°23'0 0.0
2015-Apr-20 00:31N 31°30' E 121°23'0 0.0
2015-Apr-19 23:31N 31°30' E 121°23'0 0.0
2015-Apr-19 22:28N 31°30' E 121°23'0 0.0
2015-Apr-19 21:31N 31°30' E 121°23'0 0.0
2015-Apr-19 20:31N 31°30' E 121°23'0 0.0
2015-Apr-19 19:31N 31°30' E 121°23'0 0.0
2015-Apr-19 18:31N 31°30' E 121°23'0 0.0
2015-Apr-19 17:31N 31°30' E 121°23'0 0.0
2015-Apr-19 16:31N 31°30' E 121°23'0 0.0
2015-Apr-19 15:31N 31°30' E 121°23'0 0.0
2015-Apr-19 14:31N 31°30' E 121°23'0 0.0
2015-Apr-19 13:31N 31°30' E 121°23'0 0.0
2015-Apr-19 12:31N 31°30' E 121°23'0 0.0
2015-Apr-19 11:31N 31°30' E 121°23'0 0.0
2015-Apr-19 10:31N 31°30' E 121°23'0 0.0
2015-Apr-19 09:31N 31°30' E 121°23'0 0.0
2015-Apr-19 08:28N 31°30' E 121°23'0 0.0
2015-Apr-19 07:28N 31°30' E 121°23'0 0.0
2015-Apr-19 06:34N 31°30' E 121°23'2 2.3
2015-Apr-19 05:33N 31°29' E 121°26'1010.0
2015-Apr-19 04:33N 31°23' E 121°35'1010.2
2015-Apr-19 03:34N 31°18' E 121°46'1010.3
2015-Apr-19 02:34N 31°15' E 121°57'1110.8
2015-Apr-19 01:34N 31°12' E 122°09'10 9.7
2015-Apr-19 00:33N 31°06' E 122°19'9 9.1
2015-Apr-18 23:31N 31°06' E 122°30'6 6.2
2015-Apr-18 22:34N 31°07' E 122°36'5 3.8
2015-Apr-18 21:14N 31°11' E 122°41'0 0.1
2015-Apr-18 19:22N 31°11' E 122°41'0 0.1
2015-Apr-18 18:34N 31°11' E 122°41'0 0.1
2015-Apr-18 16:19N 31°11' E 122°41'0 0.1
2015-Apr-18 15:25N 31°11' E 122°41'0 0.1
2015-Apr-18 12:16N 31°11' E 122°40'0 0.2
2015-Apr-18 11:25N 31°11' E 122°40'0 0.2
2015-Apr-18 10:12N 31°11' E 122°41'0 0.0
2015-Apr-18 09:13N 31°11' E 122°41'0 0.0
2015-Apr-18 08:27N 31°11' E 122°41'0 0.1
2015-Apr-18 07:34N 31°11' E 122°41'0 0.1
2015-Apr-18 05:24N 31°11' E 122°41'0 0.1
2015-Apr-18 04:28N 31°11' E 122°41'0 0.1
2015-Apr-17 23:31N 31°11' E 122°40'0 0.2
2015-Apr-17 22:28N 31°11' E 122°41'0 0.1
2015-Apr-17 21:30N 31°11' E 122°41'0 0.1
2015-Apr-17 14:22N 31°11' E 122°40'0 0.1
2015-Apr-17 13:33N 31°11' E 122°40'9 6.5
2015-Apr-17 12:10N 31°05' E 122°48'6 9.2
2015-Apr-17 11:30N 30°59' E 122°47'10 8.6
2015-Apr-17 10:21N 30°53' E 122°37'6 1.2
2015-Apr-17 05:30N 30°48' E 122°39'0 0.1
2015-Apr-17 04:07N 30°48' E 122°39'0 0.0
2015-Apr-17 03:31N 30°48' E 122°39'0 0.0
2015-Apr-16 22:16N 30°48' E 122°38'0 0.1
2015-Apr-16 21:33N 30°48' E 122°38'0 0.1
2015-Apr-16 20:33N 30°48' E 122°38'0 0.0
2015-Apr-16 19:33N 30°48' E 122°38'0 0.1
2015-Apr-16 18:33N 30°48' E 122°38'0 0.2
2015-Apr-16 17:33N 30°48' E 122°39'0 0.1
2015-Apr-16 16:31N 30°48' E 122°39'0 0.1
2015-Apr-16 15:33N 30°48' E 122°39'0 0.2
2015-Apr-16 14:33N 30°48' E 122°38'0 0.1
2015-Apr-16 13:27N 30°48' E 122°38'0 0.0
2015-Apr-16 12:32N 30°48' E 122°38'0 0.0
2015-Apr-16 10:19N 30°48' E 122°38'0 0.0
2015-Apr-16 09:27N 30°48' E 122°38'0 0.0
2015-Apr-15 19:28N 30°48' E 122°38'0 0.0
2015-Apr-15 10:25N 30°48' E 122°38'0 0.0
2015-Apr-15 09:22N 30°48' E 122°38'0 0.0
2015-Apr-15 08:28N 30°48' E 122°38'  
Track history (hours):
 
Tides and Currents Weather Stations Pressure Air Temp Water Temp Dewpoint Dewpoint Depression Visibility Wind Speed Wind Dir Waves Ship Positions

Taurus

Last reported at 2015-Apr-25 07:28 UTC. Time now 2015-May-03 11:50 UTC.
Position N 21°58' E 114°22'.
Warning: this ship's position is 8 days out of date.

Length 292 m; draft 11 m.

Type: Cargo ship. MMSI: 235074621.

Date/timePositionNaut miles runAvg speedWind from/ knotsBaromVisibWave heightAir tempDewpointWater temp
2015-Apr-25 07:28N 21°58' E 114°22'910.3
2015-Apr-25 06:33N 22°07' E 114°19'9 1.2
2015-Apr-24 23:10N 22°10' E 114°10'3 3.3
2015-Apr-24 22:15N 22°08' E 114°13'6 8.1
2015-Apr-24 21:33N 22°08' E 114°19'1110.6
2015-Apr-24 20:30N 22°10' E 114°31'11912.0
2015-Apr-24 10:33N 22°15' E 116°39'1111.5
2015-Apr-24 09:34N 22°15' E 116°52'1711.7
2015-Apr-24 08:09N 22°15' E 117°09'712.0
2015-Apr-24 07:32N 22°16' E 117°17'1211.9
2015-Apr-24 06:33N 22°16' E 117°30'12111.9
2015-Apr-23 20:22N 22°28' E 119°41'1011.4
2015-Apr-23 19:32N 22°36' E 119°45'1111.4
2015-Apr-23 18:33N 22°46' E 119°50'31811.2
2015-Apr-22 14:15N 27°26' E 122°38'2011.8
2015-Apr-22 12:33N 27°41' E 122°53'10510.3
2015-Apr-22 02:20N 29°19' E 123°36'1314.6
2015-Apr-22 01:26N 29°32' E 123°36'1112.0
2015-Apr-22 00:32N 29°43' E 123°33'1010.0
2015-Apr-21 23:32N 29°53' E 123°31'1010.5
2015-Apr-21 22:32N 30°03' E 123°31'1511.0
2015-Apr-21 21:11N 30°18' E 123°27'711.0
2015-Apr-21 20:31N 30°25' E 123°26'1010.5
2015-Apr-21 19:32N 30°35' E 123°24'10 9.9
2015-Apr-21 18:33N 30°45' E 123°22'10 9.3
2015-Apr-21 17:30N 30°51' E 123°13'8 8.8
2015-Apr-21 16:33N 30°55' E 123°04'9 8.5
2015-Apr-21 15:33N 30°57' E 122°55'8 7.7
2015-Apr-21 14:33N 31°02' E 122°48'8 7.7
2015-Apr-21 13:33N 31°05' E 122°40'10 9.6
2015-Apr-21 12:33N 31°05' E 122°28'10 9.7
2015-Apr-21 11:33N 31°07' E 122°17'1514.7
2015-Apr-21 10:34N 31°14' E 122°03'1514.7
2015-Apr-21 09:34N 31°18' E 121°46'1212.0
2015-Apr-21 08:33N 31°24' E 121°33'9 9.0
2015-Apr-21 07:33N 31°29' E 121°25'2 1.5
2015-Apr-21 06:31N 31°30' E 121°23'0 0.0
2015-Apr-21 05:31N 31°30' E 121°23'0 0.0
2015-Apr-21 04:28N 31°30' E 121°23'0 0.0
2015-Apr-21 03:31N 31°30' E 121°23'0 0.0
2015-Apr-21 02:31N 31°30' E 121°23'0 0.0
2015-Apr-21 01:31N 31°30' E 121°23'0 0.0
2015-Apr-21 00:28N 31°30' E 121°23'0 0.0
2015-Apr-20 23:31N 31°30' E 121°23'0 0.0
2015-Apr-20 22:31N 31°30' E 121°23'0 0.0
2015-Apr-20 21:31N 31°30' E 121°23'0 0.0
2015-Apr-20 20:31N 31°30' E 121°23'0 0.0
2015-Apr-20 19:31N 31°30' E 121°23'0 0.0
2015-Apr-20 18:31N 31°30' E 121°23'0 0.0
2015-Apr-20 17:31N 31°30' E 121°23'0 0.0
2015-Apr-20 16:31N 31°30' E 121°23'0 0.0
2015-Apr-20 15:28N 31°30' E 121°23'0 0.0
2015-Apr-20 14:31N 31°30' E 121°23'0 0.0
2015-Apr-20 13:31N 31°30' E 121°23'0 0.0
2015-Apr-20 12:31N 31°30' E 121°23'0 0.0
2015-Apr-20 11:31N 31°30' E 121°23'0 0.0
2015-Apr-20 10:31N 31°30' E 121°23'0 0.0
2015-Apr-20 09:31N 31°30' E 121°23'0 0.0
2015-Apr-20 08:31N 31°30' E 121°23'0 0.0
2015-Apr-20 07:31N 31°30' E 121°23'0 0.0
2015-Apr-20 06:31N 31°30' E 121°23'0 0.0
2015-Apr-20 05:31N 31°30' E 121°23'0 0.0
2015-Apr-20 04:31N 31°30' E 121°23'0 0.0
2015-Apr-20 03:31N 31°30' E 121°23'0 0.0
2015-Apr-20 02:31N 31°30' E 121°23'0 0.0
2015-Apr-20 01:28N 31°30' E 121°23'0 0.0
2015-Apr-20 00:31N 31°30' E 121°23'0 0.0
2015-Apr-19 23:31N 31°30' E 121°23'0 0.0
2015-Apr-19 22:28N 31°30' E 121°23'0 0.0
2015-Apr-19 21:31N 31°30' E 121°23'0 0.0
2015-Apr-19 20:31N 31°30' E 121°23'0 0.0
2015-Apr-19 19:31N 31°30' E 121°23'0 0.0
2015-Apr-19 18:31N 31°30' E 121°23'0 0.0
2015-Apr-19 17:31N 31°30' E 121°23'0 0.0
2015-Apr-19 16:31N 31°30' E 121°23'0 0.0
2015-Apr-19 15:31N 31°30' E 121°23'0 0.0
2015-Apr-19 14:31N 31°30' E 121°23'0 0.0
2015-Apr-19 13:31N 31°30' E 121°23'0 0.0
2015-Apr-19 12:31N 31°30' E 121°23'0 0.0
2015-Apr-19 11:31N 31°30' E 121°23'0 0.0
2015-Apr-19 10:31N 31°30' E 121°23'0 0.0
2015-Apr-19 09:31N 31°30' E 121°23'0 0.0
2015-Apr-19 08:28N 31°30' E 121°23'0 0.0
2015-Apr-19 07:28N 31°30' E 121°23'0 0.0
2015-Apr-19 06:34N 31°30' E 121°23'2 2.3
2015-Apr-19 05:33N 31°29' E 121°26'1010.0
2015-Apr-19 04:33N 31°23' E 121°35'1010.2
2015-Apr-19 03:34N 31°18' E 121°46'1010.3
2015-Apr-19 02:34N 31°15' E 121°57'1110.8
2015-Apr-19 01:34N 31°12' E 122°09'10 9.7
2015-Apr-19 00:33N 31°06' E 122°19'9 9.1
2015-Apr-18 23:31N 31°06' E 122°30'6 6.2
2015-Apr-18 22:34N 31°07' E 122°36'5 3.8
2015-Apr-18 21:14N 31°11' E 122°41'0 0.1
2015-Apr-18 19:22N 31°11' E 122°41'0 0.1
2015-Apr-18 18:34N 31°11' E 122°41'0 0.1
2015-Apr-18 16:19N 31°11' E 122°41'0 0.1
2015-Apr-18 15:25N 31°11' E 122°41'0 0.1
2015-Apr-18 12:16N 31°11' E 122°40'0 0.2
2015-Apr-18 11:25N 31°11' E 122°40'0 0.2
2015-Apr-18 10:12N 31°11' E 122°41'0 0.0
2015-Apr-18 09:13N 31°11' E 122°41'0 0.0
2015-Apr-18 08:27N 31°11' E 122°41'0 0.1
2015-Apr-18 07:34N 31°11' E 122°41'0 0.1
2015-Apr-18 05:24N 31°11' E 122°41'0 0.1
2015-Apr-18 04:28N 31°11' E 122°41'0 0.1
2015-Apr-17 23:31N 31°11' E 122°40'0 0.2
2015-Apr-17 22:28N 31°11' E 122°41'0 0.1
2015-Apr-17 21:30N 31°11' E 122°41'0 0.1
2015-Apr-17 14:22N 31°11' E 122°40'0 0.1
2015-Apr-17 13:33N 31°11' E 122°40'9 6.5
2015-Apr-17 12:10N 31°05' E 122°48'6 9.2
2015-Apr-17 11:30N 30°59' E 122°47'10 8.6
2015-Apr-17 10:21N 30°53' E 122°37'6 1.2
2015-Apr-17 05:30N 30°48' E 122°39'0 0.1
2015-Apr-17 04:07N 30°48' E 122°39'0 0.0
2015-Apr-17 03:31N 30°48' E 122°39'0 0.0
2015-Apr-16 22:16N 30°48' E 122°38'0 0.1
2015-Apr-16 21:33N 30°48' E 122°38'0 0.1
2015-Apr-16 20:33N 30°48' E 122°38'0 0.0
2015-Apr-16 19:33N 30°48' E 122°38'0 0.1
2015-Apr-16 18:33N 30°48' E 122°38'0 0.2
2015-Apr-16 17:33N 30°48' E 122°39'0 0.1
2015-Apr-16 16:31N 30°48' E 122°39'0 0.1
2015-Apr-16 15:33N 30°48' E 122°39'0 0.2
2015-Apr-16 14:33N 30°48' E 122°38'0 0.1
2015-Apr-16 13:27N 30°48' E 122°38'0 0.0
2015-Apr-16 12:32N 30°48' E 122°38'0 0.0
2015-Apr-16 10:19N 30°48' E 122°38'0 0.0
2015-Apr-16 09:27N 30°48' E 122°38'0 0.0
2015-Apr-15 19:28N 30°48' E 122°38'0 0.0
2015-Apr-15 10:25N 30°48' E 122°38'0 0.0
2015-Apr-15 09:22N 30°48' E 122°38'0 0.0
2015-Apr-15 08:28N 30°48' E 122°38'  

Dump ship's entire track history